Time;durP1;ratioP1;P1;durP2;ratioP2;P2;SDS_P1;SDS_P2;PMS_P1;PMS_P2;Temp;Humidity;BMP_temperature;BMP_pressure;BME280_temperature;BME280_humidity;BME280_pressure;Samples;Min_cycle;Max_cycle;Signal;HPM_P1;HPM_P2
2021/06/16 00:01:57;;;;;;;10.23;5.35;;;18.40;39.70;;;;;;4918146;29;20115;-82
2021/06/16 00:04:23;;;;;;;10.02;5.70;;;18.40;39.80;;;;;;4918770;29;20220;-82
2021/06/16 00:06:50;;;;;;;9.98;5.72;;;18.30;40.00;;;;;;4918871;29;20024;-83
2021/06/16 00:09:15;;;;;;;9.57;5.70;;;18.30;40.10;;;;;;4918561;29;20481;-83
2021/06/16 00:11:41;;;;;;;9.40;5.70;;;18.30;40.40;;;;;;4918913;29;20056;-81
2021/06/16 00:14:08;;;;;;;9.70;5.65;;;18.30;40.40;;;;;;4918868;29;20225;-81
2021/06/16 00:16:34;;;;;;;11.60;6.20;;;18.20;40.70;;;;;;4918466;29;20027;-83
2021/06/16 00:18:59;;;;;;;9.80;5.93;;;18.20;40.90;;;;;;4918370;29;20040;-83
2021/06/16 00:21:25;;;;;;;9.60;6.07;;;18.10;40.80;;;;;;4901238;29;20024;-83
2021/06/16 00:23:51;;;;;;;11.43;5.38;;;18.10;41.10;;;;;;4917212;29;20040;-82
2021/06/16 00:26:16;;;;;;;9.65;5.85;;;18.10;41.20;;;;;;4918521;29;20034;-82
2021/06/16 00:28:42;;;;;;;10.50;5.85;;;18.10;41.40;;;;;;4918474;29;20028;-82
2021/06/16 00:31:08;;;;;;;11.43;5.35;;;18.00;41.50;;;;;;4918342;29;20036;-82
2021/06/16 00:33:34;;;;;;;10.45;6.28;;;18.00;41.70;;;;;;4918551;29;20020;-82
2021/06/16 00:36:00;;;;;;;10.07;5.95;;;17.90;41.80;;;;;;4918086;29;20805;-83
2021/06/16 00:38:26;;;;;;;11.20;6.07;;;17.90;41.90;;;;;;4901277;29;20059;-82
2021/06/16 00:40:52;;;;;;;11.45;6.65;;;17.90;42.20;;;;;;4916823;29;20024;-82
2021/06/16 00:43:18;;;;;;;11.65;6.80;;;17.90;42.40;;;;;;4918279;29;20067;-82
2021/06/16 00:45:43;;;;;;;10.68;6.72;;;17.80;42.80;;;;;;4917988;29;20381;-82
2021/06/16 00:48:09;;;;;;;11.55;6.75;;;17.80;42.50;;;;;;4919602;29;20103;-82
2021/06/16 00:50:38;;;;;;;10.32;6.75;;;17.70;42.70;;;;;;4936937;29;20126;-82
2021/06/16 00:53:05;;;;;;;12.40;6.82;;;17.70;43.00;;;;;;4936923;29;20415;-82
2021/06/16 00:55:31;;;;;;;12.65;6.72;;;17.70;43.10;;;;;;4936804;29;20384;-82
2021/06/16 00:57:57;;;;;;;11.77;6.68;;;17.60;43.10;;;;;;4937176;29;20023;-81
2021/06/16 01:00:37;;;;;;;11.02;6.50;;;17.70;43.40;;;;;;4937068;29;20039;-81
2021/06/16 01:03:23;;;;;;;11.35;6.82;;;17.60;43.70;;;;;;4930703;29;20034;-82
2021/06/16 01:06:16;;;;;;;11.50;6.75;;;17.60;43.80;;;;;;4936803;29;20027;-81
2021/06/16 01:09:24;;;;;;;10.63;7.00;;;17.50;43.70;;;;;;4937071;29;20016;-81
2021/06/16 01:12:18;;;;;;;11.90;6.60;;;17.50;43.70;;;;;;4932169;29;20016;-81
2021/06/16 01:14:50;;;;;;;15.05;6.72;;;17.40;44.10;;;;;;4933515;29;20502;-81
2021/06/16 01:17:24;;;;;;;11.48;7.05;;;17.40;44.20;;;;;;4930679;29;20020;-81
2021/06/16 01:19:59;;;;;;;11.35;6.90;;;17.30;44.40;;;;;;4936528;29;20036;-81
2021/06/16 01:22:31;;;;;;;11.20;7.18;;;17.30;44.60;;;;;;4937807;29;20477;-82
2021/06/16 01:25:05;;;;;;;12.32;7.55;;;17.30;44.70;;;;;;4931724;29;20024;-82
2021/06/16 01:27:31;;;;;;;10.33;6.87;;;17.30;44.80;;;;;;4936123;29;20028;-82
2021/06/16 01:29:59;;;;;;;12.15;7.10;;;17.20;44.70;;;;;;4936404;29;20095;-82
2021/06/16 01:32:25;;;;;;;12.00;7.50;;;17.10;44.90;;;;;;4936540;29;20131;-82
2021/06/16 01:34:51;;;;;;;11.93;6.90;;;17.10;45.00;;;;;;4936353;29;20031;-82
2021/06/16 01:37:18;;;;;;;11.20;7.70;;;17.10;45.10;;;;;;4936479;29;20107;-82
2021/06/16 01:39:45;;;;;;;11.48;7.55;;;17.10;45.20;;;;;;4936181;29;20036;-83
2021/06/16 01:42:15;;;;;;;12.40;7.65;;;17.10;45.40;;;;;;4936736;29;20024;-82
2021/06/16 01:44:41;;;;;;;12.80;7.70;;;17.00;45.70;;;;;;4936109;29;20115;-81
2021/06/16 01:47:07;;;;;;;12.43;7.75;;;17.00;45.70;;;;;;4936257;29;20575;-82
2021/06/16 01:49:35;;;;;;;12.45;7.68;;;16.90;45.90;;;;;;4922270;29;20408;-82
2021/06/16 01:52:03;;;;;;;11.73;7.72;;;16.90;46.10;;;;;;4917174;29;20024;-82
2021/06/16 01:54:30;;;;;;;12.43;8.00;;;16.90;46.30;;;;;;4916130;29;20020;-83
2021/06/16 01:56:57;;;;;;;12.00;7.72;;;16.90;46.40;;;;;;4915908;29;20028;-82
2021/06/16 01:59:24;;;;;;;11.25;8.13;;;16.80;46.40;;;;;;4916978;29;20370;-82
2021/06/16 02:01:50;;;;;;;11.38;7.75;;;16.80;46.40;;;;;;4916814;29;20040;-82
2021/06/16 02:04:17;;;;;;;11.65;8.35;;;16.80;46.60;;;;;;4916432;29;20385;-82
2021/06/16 02:06:46;;;;;;;11.95;8.27;;;16.80;46.90;;;;;;4917005;29;20548;-82
2021/06/16 02:09:13;;;;;;;12.45;7.80;;;16.70;47.00;;;;;;4916554;29;20035;-83
2021/06/16 02:11:41;;;;;;;13.63;8.10;;;16.70;47.10;;;;;;4916602;29;20032;-83
2021/06/16 02:14:11;;;;;;;13.27;7.85;;;16.70;47.20;;;;;;4899522;29;20028;-83
2021/06/16 02:16:46;;;;;;;11.90;8.02;;;16.70;47.40;;;;;;4916621;29;20020;-83
2021/06/16 02:19:18;;;;;;;11.90;8.32;;;16.60;47.50;;;;;;4916912;29;20465;-83
2021/06/16 02:21:45;;;;;;;11.88;8.35;;;16.60;47.60;;;;;;4916347;29;20028;-83
2021/06/16 02:24:12;;;;;;;12.00;8.05;;;16.60;47.60;;;;;;4905536;29;20503;-83
2021/06/16 02:26:38;;;;;;;13.35;8.48;;;16.50;47.70;;;;;;4906157;29;20089;-83
2021/06/16 02:29:08;;;;;;;11.93;8.38;;;16.50;48.00;;;;;;4921358;29;20024;-83
2021/06/16 02:31:34;;;;;;;13.07;9.25;;;16.50;48.10;;;;;;4922767;29;20024;-83
2021/06/16 02:34:00;;;;;;;12.20;8.77;;;16.40;48.20;;;;;;4921893;29;20473;-82
2021/06/16 02:36:28;;;;;;;11.80;8.77;;;16.40;48.20;;;;;;4922210;29;20032;-82
2021/06/16 02:39:00;;;;;;;12.27;8.75;;;16.40;48.50;;;;;;4922910;29;20031;-82
2021/06/16 02:41:26;;;;;;;12.98;9.20;;;16.30;48.60;;;;;;4905462;29;20072;-82
2021/06/16 02:43:54;;;;;;;12.27;8.60;;;16.40;48.60;;;;;;4923246;29;20028;-82
2021/06/16 02:46:21;;;;;;;13.82;8.35;;;16.30;48.70;;;;;;4922303;29;20036;-82
2021/06/16 02:48:50;;;;;;;13.05;8.77;;;16.30;48.80;;;;;;4929736;29;20444;-82
2021/06/16 02:51:16;;;;;;;13.45;8.98;;;16.30;49.00;;;;;;4936077;29;20045;-82
2021/06/16 02:53:43;;;;;;;14.60;8.60;;;16.30;49.10;;;;;;4941189;29;20027;-82
2021/06/16 02:56:10;;;;;;;12.90;8.75;;;16.20;49.30;;;;;;4941681;29;20028;-82
2021/06/16 02:58:41;;;;;;;13.52;9.32;;;16.20;49.20;;;;;;4941582;29;20031;-82
2021/06/16 03:01:10;;;;;;;12.82;9.25;;;16.20;49.50;;;;;;4941487;29;20027;-82
2021/06/16 03:03:36;;;;;;;13.40;8.73;;;16.20;49.50;;;;;;4935939;28;20055;-82
2021/06/16 03:06:04;;;;;;;11.48;8.07;;;16.20;49.60;;;;;;4941167;29;20024;-82
2021/06/16 03:08:30;;;;;;;12.63;8.52;;;16.20;49.70;;;;;;4941676;29;20027;-82
2021/06/16 03:10:59;;;;;;;13.65;8.77;;;16.20;49.90;;;;;;4941498;29;20036;-82
2021/06/16 03:13:27;;;;;;;23.73;9.00;;;16.20;50.00;;;;;;4941805;29;20429;-82
2021/06/16 03:15:54;;;;;;;14.32;9.48;;;16.10;50.00;;;;;;4941254;29;20030;-82
2021/06/16 03:18:21;;;;;;;14.40;9.10;;;16.20;50.20;;;;;;4941492;29;20046;-82
2021/06/16 03:20:48;;;;;;;13.05;9.48;;;16.10;50.20;;;;;;4941582;29;20024;-82
2021/06/16 03:23:15;;;;;;;15.18;9.57;;;16.20;50.50;;;;;;4941805;29;20024;-81
2021/06/16 03:25:42;;;;;;;12.50;9.32;;;16.10;50.50;;;;;;4941802;29;20391;-81
2021/06/16 03:28:08;;;;;;;13.30;9.95;;;16.20;50.70;;;;;;4940542;29;20110;-81
2021/06/16 03:30:35;;;;;;;13.13;9.20;;;16.20;50.90;;;;;;4941258;29;20023;-81
2021/06/16 03:33:01;;;;;;;12.70;9.43;;;16.20;51.00;;;;;;4924529;29;20507;-81
2021/06/16 03:35:27;;;;;;;13.95;9.23;;;16.20;51.20;;;;;;4937753;29;20398;-82
2021/06/16 03:37:55;;;;;;;12.85;9.30;;;16.20;51.20;;;;;;4938152;29;20086;-82
2021/06/16 03:40:25;;;;;;;14.57;9.43;;;16.20;51.40;;;;;;4938227;29;20412;-82
2021/06/16 03:42:50;;;;;;;14.48;9.23;;;16.30;51.60;;;;;;4938327;29;20027;-82
2021/06/16 03:45:17;;;;;;;13.05;9.82;;;16.30;51.50;;;;;;4938169;29;20428;-82
2021/06/16 03:47:45;;;;;;;13.82;9.75;;;16.30;51.60;;;;;;4938176;29;20031;-82
2021/06/16 03:50:18;;;;;;;12.85;9.95;;;16.30;51.70;;;;;;4920293;29;20048;-82
2021/06/16 03:52:44;;;;;;;14.48;10.18;;;16.40;52.00;;;;;;4918937;29;20023;-82
2021/06/16 03:55:11;;;;;;;15.32;10.93;;;16.40;52.60;;;;;;4918915;29;20036;-82
2021/06/16 03:57:39;;;;;;;15.30;11.35;;;16.40;52.10;;;;;;4918978;29;20020;-82
2021/06/16 04:00:08;;;;;;;14.23;10.43;;;16.40;52.20;;;;;;4919076;29;20073;-82
2021/06/16 04:02:36;;;;;;;15.52;11.30;;;16.50;52.30;;;;;;4919199;29;20020;-82
2021/06/16 04:05:07;;;;;;;14.50;10.60;;;16.50;52.40;;;;;;4919241;29;20096;-82
2021/06/16 04:07:34;;;;;;;15.60;10.95;;;16.60;52.70;;;;;;4918915;29;20016;-82
2021/06/16 04:09:59;;;;;;;16.73;11.27;;;16.60;52.70;;;;;;4918636;29;20485;-82
2021/06/16 04:12:25;;;;;;;14.05;10.52;;;16.60;52.70;;;;;;4919068;29;20070;-83
2021/06/16 04:14:52;;;;;;;16.30;10.63;;;16.70;52.90;;;;;;4918738;29;20024;-83
2021/06/16 04:17:22;;;;;;;15.52;9.80;;;16.70;52.90;;;;;;4918482;29;20479;-83
2021/06/16 04:19:49;;;;;;;14.60;10.68;;;16.80;53.20;;;;;;4918398;29;20501;-83
2021/06/16 04:22:15;;;;;;;14.60;10.60;;;16.80;53.20;;;;;;4919102;29;20064;-83
2021/06/16 04:24:41;;;;;;;15.15;11.50;;;16.90;53.40;;;;;;4918396;29;20433;-83
2021/06/16 04:27:07;;;;;;;14.70;10.73;;;16.90;53.50;;;;;;4918562;29;20350;-83
2021/06/16 04:29:33;;;;;;;14.77;11.10;;;17.00;53.70;;;;;;4901528;29;20032;-83
2021/06/16 04:31:59;;;;;;;14.80;11.07;;;17.00;53.70;;;;;;4918447;29;20024;-83
2021/06/16 04:34:25;;;;;;;14.77;10.20;;;17.10;53.90;;;;;;4918433;29;20079;-83
2021/06/16 04:36:51;;;;;;;14.00;10.65;;;17.10;53.90;;;;;;4918410;29;20031;-85
2021/06/16 04:39:18;;;;;;;14.45;11.10;;;17.20;54.00;;;;;;4913429;29;20040;-85
2021/06/16 04:41:44;;;;;;;15.07;10.35;;;17.30;54.10;;;;;;4909900;29;20029;-86
2021/06/16 04:44:10;;;;;;;14.43;10.73;;;17.30;54.10;;;;;;4918063;29;20108;-85
2021/06/16 04:46:36;;;;;;;14.13;10.10;;;17.40;54.20;;;;;;4917841;29;20032;-84
2021/06/16 04:49:02;;;;;;;17.25;10.68;;;17.50;54.30;;;;;;4927219;29;20056;-84
2021/06/16 04:51:27;;;;;;;13.93;9.15;;;17.60;54.40;;;;;;4936432;29;20031;-84
2021/06/16 04:53:53;;;;;;;16.63;10.40;;;17.60;54.40;;;;;;4937169;29;20031;-83
2021/06/16 04:56:19;;;;;;;14.85;10.57;;;17.70;54.50;;;;;;4933812;29;20394;-84
2021/06/16 04:58:44;;;;;;;14.25;10.57;;;17.80;54.60;;;;;;4917614;29;20039;-82
2021/06/16 05:01:11;;;;;;;16.30;10.85;;;17.80;54.60;;;;;;4936570;29;20125;-83
2021/06/16 05:03:36;;;;;;;15.00;10.10;;;17.90;54.60;;;;;;4935518;29;20039;-83
2021/06/16 05:06:04;;;;;;;13.30;9.68;;;18.00;54.70;;;;;;4937463;29;20031;-83
2021/06/16 05:08:29;;;;;;;14.65;10.38;;;18.10;54.80;;;;;;4936046;29;20051;-85
2021/06/16 05:10:55;;;;;;;13.93;9.98;;;18.10;54.70;;;;;;4915133;29;20480;-85
2021/06/16 05:13:25;;;;;;;13.80;9.75;;;18.20;54.70;;;;;;4920039;29;20100;-85
2021/06/16 05:15:52;;;;;;;17.45;9.30;;;18.30;55.00;;;;;;4937199;29;20055;-85
2021/06/16 05:18:18;;;;;;;14.02;9.15;;;18.30;55.00;;;;;;4920635;29;20031;-85
2021/06/16 05:20:45;;;;;;;13.88;9.13;;;18.40;55.00;;;;;;4937603;29;20115;-85
2021/06/16 05:23:11;;;;;;;14.93;9.32;;;18.40;55.00;;;;;;4937114;29;20023;-85
2021/06/16 05:25:37;;;;;;;12.70;8.75;;;18.50;54.90;;;;;;4936695;29;20024;-85
2021/06/16 05:28:03;;;;;;;13.65;8.95;;;18.40;54.90;;;;;;4935417;29;20028;-84
2021/06/16 05:30:29;;;;;;;12.02;7.95;;;18.50;55.60;;;;;;4936038;29;20071;-85
2021/06/16 05:32:54;;;;;;;13.20;8.63;;;18.60;55.10;;;;;;4916483;29;20043;-86
2021/06/16 05:35:20;;;;;;;12.70;8.18;;;18.60;55.10;;;;;;4928986;29;20028;-86
2021/06/16 05:37:47;;;;;;;13.85;8.45;;;18.70;55.10;;;;;;4932800;29;20036;-84
2021/06/16 05:40:15;;;;;;;15.52;8.45;;;18.70;55.00;;;;;;4930839;29;20392;-84
2021/06/16 05:42:42;;;;;;;13.13;7.88;;;18.80;55.10;;;;;;4936006;29;20046;-84
2021/06/16 05:45:09;;;;;;;15.13;7.75;;;18.90;55.20;;;;;;4936116;29;20526;-84
2021/06/16 05:47:35;;;;;;;14.35;7.30;;;18.90;55.30;;;;;;4918521;29;20028;-83
2021/06/16 05:50:03;;;;;;;17.73;7.78;;;19.00;55.30;;;;;;4931427;29;20523;-84
2021/06/16 05:52:31;;;;;;;14.30;7.60;;;19.00;55.30;;;;;;4919199;29;20103;-84
2021/06/16 05:54:59;;;;;;;13.63;7.43;;;19.10;55.40;;;;;;4935371;29;20141;-85
2021/06/16 05:57:27;;;;;;;12.93;6.80;;;19.20;55.60;;;;;;4934668;29;20506;-85
2021/06/16 05:59:55;;;;;;;12.38;7.13;;;19.30;55.60;;;;;;4935417;29;20102;-83
2021/06/16 06:02:21;;;;;;;11.50;6.90;;;19.40;56.20;;;;;;4935182;29;20039;-83
2021/06/16 06:04:46;;;;;;;11.55;6.53;;;19.60;55.70;;;;;;4935624;29;20027;-82
2021/06/16 06:07:12;;;;;;;10.88;6.60;;;19.60;55.70;;;;;;4935201;29;20469;-82
2021/06/16 06:09:38;;;;;;;11.68;6.63;;;19.80;55.80;;;;;;4935619;29;20031;-84
2021/06/16 06:12:03;;;;;;;14.75;6.65;;;19.80;55.80;;;;;;4916398;29;20047;-84
2021/06/16 06:14:29;;;;;;;13.05;6.70;;;20.00;55.90;;;;;;4918724;29;20032;-85
2021/06/16 06:16:54;;;;;;;11.93;6.63;;;20.20;56.00;;;;;;4934413;29;20457;-84
2021/06/16 06:19:20;;;;;;;12.85;6.70;;;20.20;55.90;;;;;;4935267;29;20050;-84
2021/06/16 06:21:46;;;;;;;10.15;7.00;;;20.40;56.00;;;;;;4935160;29;20023;-84
2021/06/16 06:24:12;;;;;;;13.50;6.80;;;20.50;56.00;;;;;;4934917;29;20067;-83
2021/06/16 06:26:37;;;;;;;10.13;6.63;;;20.50;56.00;;;;;;4935352;29;20423;-83
2021/06/16 06:29:04;;;;;;;12.98;6.40;;;20.60;56.20;;;;;;4918296;29;20031;-83
2021/06/16 06:31:30;;;;;;;12.98;7.05;;;20.80;56.30;;;;;;4932057;29;20035;-83
2021/06/16 06:33:56;;;;;;;13.50;7.07;;;20.90;56.30;;;;;;4935227;29;20145;-84
2021/06/16 06:36:22;;;;;;;12.80;7.00;;;21.00;56.30;;;;;;4933178;29;20050;-84
2021/06/16 06:38:48;;;;;;;10.13;6.50;;;21.10;56.30;;;;;;4934983;29;20527;-84
2021/06/16 06:41:15;;;;;;;9.35;6.15;;;21.30;56.40;;;;;;4918651;29;20111;-83
2021/06/16 06:43:40;;;;;;;12.27;6.60;;;21.30;56.30;;;;;;4935192;29;20043;-83
2021/06/16 06:46:06;;;;;;;9.95;6.35;;;21.40;56.30;;;;;;4935861;29;20020;-83
2021/06/16 06:48:32;;;;;;;12.95;6.20;;;21.50;56.20;;;;;;4935419;29;20048;-82
2021/06/16 06:50:59;;;;;;;10.02;5.72;;;21.60;56.20;;;;;;4935056;29;20059;-81
2021/06/16 06:53:27;;;;;;;10.68;6.10;;;21.70;56.40;;;;;;4934693;29;20495;-80
2021/06/16 06:55:53;;;;;;;12.00;6.15;;;21.80;56.40;;;;;;4927454;29;20025;-82
2021/06/16 06:58:19;;;;;;;9.85;5.90;;;22.00;56.40;;;;;;4933263;29;20457;-82
2021/06/16 07:00:44;;;;;;;10.50;5.68;;;22.10;56.30;;;;;;4933857;29;20168;-82
2021/06/16 07:03:10;;;;;;;9.82;5.38;;;22.10;56.10;;;;;;4934094;29;20044;-82
2021/06/16 07:05:35;;;;;;;11.55;6.00;;;22.30;56.20;;;;;;4933286;29;20571;-82
2021/06/16 07:08:01;;;;;;;10.35;5.68;;;22.40;56.20;;;;;;4934721;29;20051;-83
2021/06/16 07:10:27;;;;;;;9.57;5.85;;;22.40;56.10;;;;;;4936720;29;20028;-83
2021/06/16 07:12:53;;;;;;;10.20;5.47;;;22.60;56.10;;;;;;4937836;29;20145;-82
2021/06/16 07:15:20;;;;;;;9.27;5.43;;;22.70;56.10;;;;;;4937941;29;20436;-81
2021/06/16 07:17:45;;;;;;;12.20;5.60;;;22.80;56.10;;;;;;4938663;29;20114;-81
2021/06/16 07:20:12;;;;;;;10.57;5.80;;;23.00;56.20;;;;;;4937740;29;20453;-82
2021/06/16 07:22:37;;;;;;;9.07;5.50;;;23.10;56.20;;;;;;4938549;29;20095;-81
2021/06/16 07:25:04;;;;;;;9.77;5.30;;;23.20;56.20;;;;;;4938086;29;20112;-81
2021/06/16 07:27:30;;;;;;;9.00;5.20;;;23.30;56.10;;;;;;4937152;29;20034;-82
2021/06/16 07:29:55;;;;;;;12.05;5.13;;;23.50;56.00;;;;;;4938583;29;20454;-81
2021/06/16 07:32:21;;;;;;;9.77;4.93;;;23.60;56.00;;;;;;4938285;29;20055;-81
2021/06/16 07:34:47;;;;;;;8.68;5.00;;;23.70;56.00;;;;;;4929676;29;20040;-82
2021/06/16 07:37:13;;;;;;;9.73;5.05;;;23.90;56.00;;;;;;4937102;29;20036;-81
2021/06/16 07:39:38;;;;;;;9.75;4.90;;;24.00;56.00;;;;;;4937633;29;20044;-82
2021/06/16 07:42:04;;;;;;;9.63;4.90;;;24.20;56.10;;;;;;4937974;29;20455;-81
2021/06/16 07:44:30;;;;;;;11.55;4.97;;;24.30;56.00;;;;;;4936884;29;20038;-80
2021/06/16 07:46:55;;;;;;;10.60;4.75;;;24.40;55.80;;;;;;4937660;29;20058;-82
2021/06/16 07:49:21;;;;;;;8.05;4.75;;;24.60;55.80;;;;;;4937296;29;20069;-81
2021/06/16 07:51:47;;;;;;;8.95;5.00;;;24.70;55.70;;;;;;4938024;29;20020;-82
2021/06/16 07:54:12;;;;;;;11.60;5.05;;;24.90;55.80;;;;;;4937509;29;20059;-82
2021/06/16 07:56:42;;;;;;;9.25;4.95;;;25.10;55.70;;;;;;4920887;29;20476;-85
2021/06/16 07:59:08;;;;;;;8.57;4.80;;;25.20;55.50;;;;;;4937516;29;20046;-81
2021/06/16 08:01:34;;;;;;;10.77;5.10;;;25.30;55.30;;;;;;4937028;29;20392;-81
2021/06/16 08:04:00;;;;;;;12.52;5.05;;;25.40;55.10;;;;;;4937692;29;20436;-81
2021/06/16 08:06:26;;;;;;;11.18;4.63;;;25.50;55.10;;;;;;4937309;29;20128;-81
2021/06/16 08:08:52;;;;;;;8.18;4.50;;;25.60;55.00;;;;;;4937495;29;20031;-81
2021/06/16 08:11:19;;;;;;;8.55;4.20;;;25.70;54.90;;;;;;4937168;29;20040;-80
2021/06/16 08:13:45;;;;;;;9.15;4.55;;;25.70;54.80;;;;;;4937033;29;20472;-80
2021/06/16 08:16:10;;;;;;;8.60;4.53;;;25.90;55.00;;;;;;4937123;29;20078;-81
2021/06/16 08:18:36;;;;;;;12.82;4.65;;;26.00;54.90;;;;;;4936971;29;20106;-81
2021/06/16 08:21:02;;;;;;;9.20;4.70;;;26.10;54.80;;;;;;4936259;29;20055;-82
2021/06/16 08:23:27;;;;;;;8.20;4.20;;;26.30;54.80;;;;;;4936935;29;20588;-81
2021/06/16 08:25:53;;;;;;;8.10;4.18;;;26.30;54.80;;;;;;4937357;29;20036;-80
2021/06/16 08:28:19;;;;;;;8.63;4.10;;;26.50;54.90;;;;;;4936579;29;20039;-81
2021/06/16 08:30:44;;;;;;;10.52;4.53;;;26.70;54.80;;;;;;4937250;29;20468;-80
2021/06/16 08:33:10;;;;;;;8.90;3.90;;;26.90;54.80;;;;;;4936749;29;20079;-82
2021/06/16 08:35:36;;;;;;;9.98;4.25;;;27.10;54.80;;;;;;4936995;29;20030;-82
2021/06/16 08:38:02;;;;;;;7.95;3.90;;;27.30;54.60;;;;;;4932456;29;20110;-81
2021/06/16 08:40:28;;;;;;;11.05;4.53;;;27.40;54.40;;;;;;4920182;29;20039;-83
2021/06/16 08:42:54;;;;;;;7.35;3.67;;;27.60;54.30;;;;;;4931747;29;20477;-82
2021/06/16 08:45:20;;;;;;;8.23;3.70;;;27.80;54.20;;;;;;4934721;29;20056;-81
2021/06/16 08:47:48;;;;;;;7.55;3.38;;;27.90;54.10;;;;;;4935973;29;20071;-82
2021/06/16 08:50:14;;;;;;;9.13;4.00;;;28.10;54.00;;;;;;4933435;29;20044;-81
2021/06/16 08:52:41;;;;;;;7.85;3.70;;;28.30;53.70;;;;;;4931861;29;20032;-81
2021/06/16 08:55:09;;;;;;;8.07;3.83;;;28.30;53.30;;;;;;4932531;29;20039;-81
2021/06/16 08:57:35;;;;;;;6.95;3.88;;;28.50;53.50;;;;;;4935995;29;20090;-81
2021/06/16 09:00:03;;;;;;;6.88;3.17;;;28.60;53.30;;;;;;4936496;29;20496;-81
2021/06/16 09:02:29;;;;;;;8.57;3.25;;;28.70;52.90;;;;;;4936328;29;20075;-82
2021/06/16 09:04:55;;;;;;;7.30;3.75;;;28.70;52.60;;;;;;4936672;29;20495;-81
2021/06/16 09:07:26;;;;;;;8.40;3.58;;;28.90;52.40;;;;;;4935984;29;20020;-81
2021/06/16 09:10:11;;;;;;;8.75;3.38;;;28.90;52.00;;;;;;4936496;29;20384;-81
2021/06/16 09:12:46;;;;;;;6.03;3.13;;;28.90;51.90;;;;;;4930898;29;20075;-80
2021/06/16 09:15:14;;;;;;;9.20;3.00;;;29.00;51.70;;;;;;4934186;29;20118;-81
2021/06/16 09:17:40;;;;;;;8.43;3.30;;;29.10;51.70;;;;;;4935578;29;20074;-80
2021/06/16 09:20:07;;;;;;;6.80;3.30;;;29.20;51.70;;;;;;4936184;29;20039;-81
2021/06/16 09:22:37;;;;;;;7.10;2.90;;;29.30;51.40;;;;;;4933422;29;20038;-80
2021/06/16 09:25:09;;;;;;;6.65;2.80;;;29.40;51.20;;;;;;4936683;29;20159;-81
2021/06/16 09:27:50;;;;;;;6.32;2.75;;;29.50;51.30;;;;;;4923770;29;20499;-82
2021/06/16 09:30:19;;;;;;;6.40;2.85;;;29.60;50.80;;;;;;4937023;29;20027;-80
2021/06/16 09:32:53;;;;;;;6.28;3.17;;;29.80;50.80;;;;;;4935128;29;20039;-81
2021/06/16 09:35:19;;;;;;;6.40;2.80;;;29.90;50.80;;;;;;4930516;29;20035;-81
2021/06/16 09:37:45;;;;;;;5.50;2.75;;;30.10;50.70;;;;;;4934549;29;20443;-80
2021/06/16 09:40:11;;;;;;;7.38;2.80;;;30.20;50.60;;;;;;4934867;29;20508;-80
2021/06/16 09:42:37;;;;;;;6.93;2.97;;;30.40;50.40;;;;;;4934459;29;20059;-80
2021/06/16 09:45:04;;;;;;;4.97;2.20;;;30.50;50.20;;;;;;4917725;29;21092;-81
2021/06/16 09:47:30;;;;;;;6.32;2.67;;;30.70;50.00;;;;;;4935156;29;20087;-81
2021/06/16 09:50:01;;;;;;;4.93;2.40;;;30.80;49.70;;;;;;4934577;29;20051;-81
2021/06/16 09:52:32;;;;;;;5.60;2.72;;;30.90;49.20;;;;;;4935255;29;20054;-82
2021/06/16 09:55:11;;;;;;;6.55;2.80;;;31.00;49.40;;;;;;4935051;29;20023;-81
2021/06/16 09:57:37;;;;;;;6.68;2.72;;;31.20;48.90;;;;;;4935472;29;20074;-82
2021/06/16 10:00:09;;;;;;;6.60;2.78;;;31.20;48.70;;;;;;4935771;29;20040;-82
2021/06/16 10:02:35;;;;;;;5.95;2.60;;;31.30;48.60;;;;;;4935654;29;20031;-82
2021/06/16 10:05:03;;;;;;;6.35;2.70;;;31.40;48.50;;;;;;4935196;29;20492;-82
2021/06/16 10:07:33;;;;;;;5.32;2.47;;;31.60;48.30;;;;;;4928855;29;20027;-82
2021/06/16 10:10:02;;;;;;;4.50;2.42;;;31.70;48.10;;;;;;4935134;29;20028;-81
2021/06/16 10:12:37;;;;;;;6.03;2.70;;;31.80;47.70;;;;;;4935356;29;20460;-81
2021/06/16 10:15:07;;;;;;;5.10;2.60;;;32.00;47.60;;;;;;4930098;29;20035;-81
2021/06/16 10:17:33;;;;;;;5.35;2.17;;;32.10;47.10;;;;;;4934853;29;20535;-81
2021/06/16 10:20:00;;;;;;;6.97;2.50;;;32.20;46.80;;;;;;4935422;29;20035;-80
2021/06/16 10:22:25;;;;;;;9.77;2.88;;;32.40;46.60;;;;;;4935145;29;20063;-80
2021/06/16 10:24:52;;;;;;;6.82;2.70;;;32.50;46.40;;;;;;4935118;29;20078;-81
2021/06/16 10:27:27;;;;;;;4.45;2.42;;;32.60;46.30;;;;;;4935164;29;20027;-80
2021/06/16 10:30:47;;;;;;;5.40;2.58;;;32.70;46.50;;;;;;4935155;29;20024;-81
2021/06/16 10:33:30;;;;;;;5.07;2.50;;;32.80;46.20;;;;;;4931683;29;20034;-81
2021/06/16 10:36:14;;;;;;;6.00;2.60;;;32.90;46.00;;;;;;4935345;29;20429;-81
2021/06/16 10:39:01;;;;;;;5.57;2.60;;;33.00;45.60;;;;;;4935133;29;20091;-82
2021/06/16 10:41:48;;;;;;;5.30;2.63;;;33.00;45.50;;;;;;4934930;29;20098;-82
2021/06/16 10:44:20;;;;;;;5.43;2.50;;;33.10;45.00;;;;;;4936584;29;20024;-82
2021/06/16 10:46:50;;;;;;;6.85;2.97;;;33.20;44.60;;;;;;4938863;29;20443;-82
2021/06/16 10:49:36;;;;;;;4.72;2.45;;;33.40;44.50;;;;;;4938788;29;20126;-82
2021/06/16 10:52:03;;;;;;;5.22;2.58;;;33.60;44.50;;;;;;4933482;29;20043;-81
2021/06/16 10:54:30;;;;;;;3.72;2.22;;;33.90;44.20;;;;;;4938575;29;20039;-81
2021/06/16 10:57:09;;;;;;;4.35;2.60;;;34.10;44.30;;;;;;4937420;29;20027;-82
2021/06/16 10:59:44;;;;;;;4.97;2.50;;;34.30;44.30;;;;;;4934092;29;20035;-81
2021/06/16 11:02:12;;;;;;;5.80;2.40;;;34.50;43.80;;;;;;4933551;29;20032;-82
2021/06/16 11:04:38;;;;;;;6.38;2.35;;;34.70;43.80;;;;;;4938620;29;20506;-82
2021/06/16 11:07:23;;;;;;;6.35;2.58;;;34.90;43.70;;;;;;4938787;29;20118;-82
2021/06/16 11:09:59;;;;;;;5.85;2.67;;;35.10;43.30;;;;;;4938397;29;20020;-82
2021/06/16 11:12:52;;;;;;;4.47;2.22;;;35.30;42.90;;;;;;4938010;29;20023;-82
2021/06/16 11:15:23;;;;;;;4.30;2.22;;;35.50;42.90;;;;;;4938288;29;20031;-82
2021/06/16 11:17:50;;;;;;;4.28;2.40;;;35.80;43.20;;;;;;4938177;29;20098;-82
2021/06/16 11:20:21;;;;;;;5.88;2.47;;;36.10;43.20;;;;;;4937883;29;20388;-81
2021/06/16 11:22:48;;;;;;;5.85;2.40;;;36.50;43.30;;;;;;4935611;29;20060;-82
2021/06/16 11:25:28;;;;;;;3.80;2.30;;;37.10;43.90;;;;;;4938341;29;20019;-82
2021/06/16 11:28:12;;;;;;;4.18;2.35;;;37.70;43.90;;;;;;4937992;29;20016;-82
2021/06/16 11:31:01;;;;;;;5.80;2.40;;;38.20;43.80;;;;;;4936769;29;20067;-82
2021/06/16 11:33:31;;;;;;;4.93;2.42;;;39.10;44.30;;;;;;4937645;29;20027;-82
2021/06/16 11:36:07;;;;;;;3.78;2.10;;;39.80;43.30;;;;;;4921069;29;20114;-82
2021/06/16 11:38:36;;;;;;;3.67;2.13;;;40.50;43.60;;;;;;4936348;29;20027;-82
2021/06/16 11:41:15;;;;;;;3.33;2.30;;;41.00;42.60;;;;;;4936637;29;20029;-82
2021/06/16 11:43:49;;;;;;;4.25;2.20;;;41.20;41.80;;;;;;4937409;29;20030;-82
2021/06/16 11:46:35;;;;;;;4.15;2.13;;;41.20;38.50;;;;;;4937805;29;20027;-83
2021/06/16 11:49:16;;;;;;;5.05;2.70;;;40.20;37.90;;;;;;4933181;29;20044;-83
2021/06/16 11:51:57;;;;;;;3.83;2.10;;;40.20;39.40;;;;;;4938195;29;20024;-83
2021/06/16 11:56:58;;;;;;;3.42;2.20;;;42.50;41.50;;;;;;4936993;29;20039;-84
2021/06/16 11:59:35;;;;;;;4.63;2.30;;;43.50;40.60;;;;;;4933064;29;20039;-82
2021/06/16 12:02:07;;;;;;;4.78;2.40;;;44.60;41.20;;;;;;4920361;29;20070;-84
2021/06/16 12:04:48;;;;;;;5.57;2.15;;;45.30;39.80;;;;;;4937725;29;20051;-84
2021/06/16 12:07:40;;;;;;;5.40;2.33;;;45.90;39.70;;;;;;4926777;29;20044;-85
2021/06/16 12:10:07;;;;;;;5.45;2.45;;;46.30;38.90;;;;;;4937337;29;20023;-85
2021/06/16 12:13:04;;;;;;;5.20;2.40;;;46.80;38.30;;;;;;4937866;29;20461;-85
2021/06/16 12:15:33;;;;;;;2.85;2.10;;;47.00;38.30;;;;;;4931227;29;20083;-83
2021/06/16 12:18:03;;;;;;;5.40;2.45;;;47.70;38.20;;;;;;4920641;29;20031;-84
2021/06/16 12:20:44;;;;;;;4.57;2.20;;;48.30;37.90;;;;;;4937219;29;20122;-83
2021/06/16 12:23:22;;;;;;;3.67;2.40;;;48.70;37.80;;;;;;4932556;29;20028;-85
2021/06/16 12:25:49;;;;;;;4.45;2.47;;;49.40;37.70;;;;;;4936773;29;20098;-84
2021/06/16 12:28:16;;;;;;;5.00;2.38;;;49.50;35.70;;;;;;4936927;29;20020;-84
2021/06/16 12:30:43;;;;;;;5.32;2.47;;;49.80;35.70;;;;;;4937400;29;20035;-84
2021/06/16 12:33:23;;;;;;;6.03;2.63;;;50.50;34.40;;;;;;4936872;29;20070;-84
2021/06/16 12:38:33;;;;;;;5.72;2.67;;;50.60;32.50;;;;;;4937148;29;20031;-84
2021/06/16 12:40:58;;;;;;;5.90;2.50;;;50.90;32.10;;;;;;4936568;29;20063;-84
2021/06/16 12:43:26;;;;;;;4.80;2.78;;;51.30;31.70;;;;;;4936421;29;20431;-84
2021/06/16 12:45:56;;;;;;;2.90;2.50;;;51.90;32.10;;;;;;4936959;29;20032;-84
2021/06/16 12:48:27;;;;;;;7.83;3.00;;;52.80;31.60;;;;;;4936281;29;20043;-82
2021/06/16 12:50:53;;;;;;;;;;;53.40;31.30;;;;;;4937189;29;20063;-85
2021/06/16 12:53:19;;;;;;;4.57;3.10;;;53.80;31.60;;;;;;4919975;29;19953;-81
2021/06/16 12:55:50;;;;;;;4.97;3.42;;;54.20;30.30;;;;;;4931493;29;20142;-84